Nyala, Nevada Weather observations

Data are for observation ending at time listed.
 Day   Time    Ave.   Ave.  Ave.  Vector   Max.   Stn.    Total    Solar   Ave.  
  of    of     Air    Rel.  Wind   Wind    Wind   Baro.  Precip.   Rad.    Soil  
Year   Day     Temp.  Hum.  Speed  Dir.    Gust   Pres.                    Temp. 
2014   (PST)    F      %     mph   deg.    mph     mb.     in.     W/m2     F   
------------------------------------------------------------------------------
 331   12:00   44.7    31    0.9   278      4.7    860     0.00     110    36.2
 331   13:00   46.8    29    1.3   331      5.0    860     0.00     131    37.3
 331   14:00   48.2    28    1.2   351      3.6    859     0.00     111    38.6
 331   15:00   48.8    27    0.9   320      4.2    858     0.00      82    39.6
 331   16:00   47.6    28    0.4   316      2.5    858     0.00      27    40.4
 331   17:00   42.6    33    0.5   126      2.3    858     0.00       3    40.6
 331   18:00   37.9    39    1.1   134      2.8    858     0.00       0    40.4
 331   19:00   36.2    41    2.4   134      4.0    858     0.00       0    39.9
 331   20:00   34.0    44    1.9   131      3.4    857     0.00       0    39.4
 331   21:00   29.5    50    0.3    60      1.8    857     0.00       0    38.8
 331   22:00   29.5    52    0.4   104      2.1    857     0.00       0    38.1
 331   23:00   29.8    51    1.1   129      3.8    857     0.00       0    37.4
 332    0:00   28.3    54    0.9   101      3.8    857     0.00       0    36.8
 332    1:00   26.8    56    0.7   164      4.2    856     0.00       0    36.2
 332    2:00   24.9    60    1.2   159      5.0    856     0.00       0    35.8
 332    3:00   24.4    61    0.3    81      3.1    856     0.00       0    35.3
 332    4:00   23.6    63    0.5   135      2.5    855     0.00       0    34.8
 332    5:00   22.5    65    0.7   152      3.1    855     0.00       0    34.3
 332    6:00   22.4    66    2.2   118      3.6    855     0.00       0    33.7
 332    7:00   20.3    68    0.6   157      3.9    855     0.00       3    33.2
 332    8:00   22.2    68    1.8   191      5.3    854     0.00      17    32.7
 332    9:00   32.9    50    0.1   255      1.8    854     0.00     124    32.4
 332   10:00   42.8    34    0.5   339      3.4    854     0.00     185    32.7
 332   11:00   46.2    30    0.8   328      3.1    854     0.00     236    33.4

Return to Nyala, Nevada graphs page.


Western Regional Climate Center,wrcc@dri.edu